Island Princess — ZCDG4 — position and weather

sailwx.info

Track history (hours):
 
Tides and Currents Weather Stations Pressure Air Temp Water Temp Dewpoint Dewpoint Depression Visibility Wind Speed Wind Dir Waves Ship Positions

Island Princess

Operator: Princess Cruises

Last reported at 2019-Mar-22 08:00 UTC. Time now 2019-Mar-22 12:46 UTC.
Position N 19°42' W 082°00'.

Type: Passenger vessel. MMSI: 310384000.

Wind from 360 at 23 knots

Barometer 1014.8 mb
Air temperature 24.0 ° C
Visibility: greater than 10.8 NM
Dewpoint 16.7 ° C
Water temperature 28.0 ° C

Date/timePositionNaut miles runAvg speedWind from/ knotsBaromVisibWave heightAir tempDewpointWater temp
2019-Mar-22 08:00N 19°42' W 082°00'6713.4 360 / 231014.810.8 24.016.728.0
2019-Mar-22 03:00N 20°18' W 083°00'16113.5 350 / 271016.610.8 26.014.427.0
2019-Mar-21 15:00N 22°36' W 084°30'14317.9 360 / 231018.610.8 26.516.027.0
2019-Mar-21 07:00N 24°00' W 082°24'15619.4 330 / 141015.010.8 23.017.428.0
2019-Mar-20 22:58N 25°25' W 079°60'919.3
2019-Mar-20 22:30N 25°34' W 079°59'919.2
2019-Mar-20 22:00N 25°43' W 079°59'1019.0
2019-Mar-20 21:30N 25°53' W 079°58'917.4
2019-Mar-20 21:00N 26°01' W 079°59'713.7
2019-Mar-20 20:30N 26°06' W 080°05'2 3.2
2019-Mar-20 20:00N 26°06' W 080°07'0 0.0
2019-Mar-20 19:30N 26°06' W 080°07'0 0.0
2019-Mar-20 19:00N 26°06' W 080°07'0 0.0
2019-Mar-20 18:30N 26°06' W 080°07'0 0.0
2019-Mar-20 18:00N 26°06' W 080°07'0 0.0
2019-Mar-20 17:30N 26°06' W 080°07'0 0.0
2019-Mar-20 16:57N 26°06' W 080°07'0 0.0
2019-Mar-20 16:27N 26°06' W 080°07'0 0.0
2019-Mar-20 16:00N 26°06' W 080°07'0 0.0
2019-Mar-20 15:30N 26°06' W 080°07'0 0.0
2019-Mar-20 15:00N 26°06' W 080°07'0 0.0
2019-Mar-20 14:30N 26°06' W 080°07'0 0.0
2019-Mar-20 14:00N 26°06' W 080°07'0 0.0
2019-Mar-20 13:30N 26°06' W 080°07'0 0.0
2019-Mar-20 13:00N 26°06' W 080°07'0 0.0
2019-Mar-20 12:27N 26°06' W 080°07'0 0.0
2019-Mar-20 12:00N 26°06' W 080°07'0 0.0
2019-Mar-20 11:27N 26°06' W 080°07'0 0.0
2019-Mar-20 11:00N 26°06' W 080°07'0 0.0
2019-Mar-20 10:30N 26°06' W 080°07'1 2.8
2019-Mar-20 10:00N 26°06' W 080°06'510.9
2019-Mar-20 09:30N 26°06' W 079°60'611.6
2019-Mar-20 09:00N 26°03' W 079°54'713.7
2019-Mar-20 08:30N 25°56' W 079°52'714.3
2019-Mar-20 08:01N 25°49' W 079°52'714.5
2019-Mar-20 07:31N 25°42' W 079°53'816.9
2019-Mar-20 07:00N 25°34' W 079°53'1019.2
2019-Mar-20 06:30N 25°24' W 079°54'918.9
2019-Mar-20 06:00N 25°15' W 079°56'5418.0
2019-Mar-20 03:00N 24°30' W 080°30'7318.2 060 / 201015.110.8 23.519.627.0
2019-Mar-19 23:00N 23°42' W 081°30'16122.9 040 / 201013.110.8 24.019.427.0
2019-Mar-19 16:00N 22°42' W 084°12'15112.6 050 / 211015.610.8 24.021.027.0
2019-Mar-19 04:00N 20°24' W 083°06'182 8.6 230 / 91015.210.8 26.021.528.0
2019-Mar-18 07:00N 18°12' W 080°54'6421.4 070 / 71013.810.8 26.521.328.0
2019-Mar-18 04:00N 17°12' W 080°30'8016.0 070 / 161015.210.8 25.521.828.0
2019-Mar-17 23:00N 15°54' W 080°12'11923.8 050 / 151012.910.8 26.523.027.0
2019-Mar-17 18:00N 14°00' W 080°48'4824.2 040 / 131014.110.8 26.521.328.0
2019-Mar-17 16:00N 13°12' W 080°54'219 5.9 050 / 141015.510.8 26.521.528.0
2019-Mar-16 03:00N 09°37' W 080°09'1019.9
2019-Mar-16 02:30N 09°35' W 079°59'918.6
2019-Mar-16 02:01N 09°27' W 079°54'611.0
2019-Mar-16 01:31N 09°22' W 079°54'0 0.1
2019-Mar-16 01:00N 09°22' W 079°54'0 0.0
2019-Mar-16 00:30N 09°22' W 079°54'0 0.0
2019-Mar-16 00:00N 09°22' W 079°54'0 0.0
2019-Mar-15 23:30N 09°22' W 079°54'0 0.0
2019-Mar-15 23:00N 09°22' W 079°54'1 1.4
2019-Mar-15 22:30N 09°22' W 079°54'2 4.3
2019-Mar-15 22:00N 09°25' W 079°54'4 7.4
2019-Mar-15 21:30N 09°21' W 079°55'4 7.9
2019-Mar-15 21:00N 09°17' W 079°55'0 0.5
2019-Mar-15 20:30N 09°17' W 079°55'0 0.6
2019-Mar-15 19:57N 09°16' W 079°55'0 0.4
2019-Mar-15 19:30N 09°16' W 079°55'1 0.5
2019-Mar-15 17:53N 09°15' W 079°55'0 0.0
2019-Mar-15 17:20N 09°15' W 079°55'0 0.0
2019-Mar-15 16:44N 09°15' W 079°55'0 0.0
2019-Mar-15 16:30N 09°15' W 079°55'0 0.3
2019-Mar-15 16:00N 09°15' W 079°55'1 2.0
2019-Mar-15 15:30N 09°16' W 079°55'0 0.4
2019-Mar-15 15:00N 09°16' W 079°55'0 0.4
2019-Mar-15 14:30N 09°17' W 079°55'0 0.5
2019-Mar-15 14:00N 09°17' W 079°55'0 0.4
2019-Mar-15 13:25N 09°17' W 079°55'1 1.9
2019-Mar-15 13:00N 09°18' W 079°55'2 3.1
2019-Mar-15 12:30N 09°19' W 079°55'2 4.8
2019-Mar-15 12:00N 09°22' W 079°55'3 6.1
2019-Mar-15 11:30N 09°25' W 079°55'4 8.7
2019-Mar-15 11:00N 09°29' W 079°54'612.1
2019-Mar-15 10:30N 09°35' W 079°52'20119.1
2019-Mar-15 00:00N 10°06' W 076°30'273 8.8 020 / 221008.810.8 26.523.727.0
2019-Mar-13 17:00N 14°36' W 075°48'   060 / 301011.710.8 27.021.028.0
Track history (hours):
 
Tides and Currents Weather Stations Pressure Air Temp Water Temp Dewpoint Dewpoint Depression Visibility Wind Speed Wind Dir Waves Ship Positions

Island Princess

Operator: Princess Cruises

Last reported at 2019-Mar-22 08:00 UTC. Time now 2019-Mar-22 12:46 UTC.
Position N 19°42' W 082°00'.

Type: Passenger vessel. MMSI: 310384000.

Wind from 360 at 23 knots

Barometer 1014.8 mb
Air temperature 24.0 ° C
Visibility: greater than 10.8 NM
Dewpoint 16.7 ° C
Water temperature 28.0 ° C

Date/timePositionNaut miles runAvg speedWind from/ knotsBaromVisibWave heightAir tempDewpointWater temp
2019-Mar-22 08:00N 19°42' W 082°00'6713.4 360 / 231014.810.8 24.016.728.0
2019-Mar-22 03:00N 20°18' W 083°00'16113.5 350 / 271016.610.8 26.014.427.0
2019-Mar-21 15:00N 22°36' W 084°30'14317.9 360 / 231018.610.8 26.516.027.0
2019-Mar-21 07:00N 24°00' W 082°24'15619.4 330 / 141015.010.8 23.017.428.0
2019-Mar-20 22:58N 25°25' W 079°60'919.3
2019-Mar-20 22:30N 25°34' W 079°59'919.2
2019-Mar-20 22:00N 25°43' W 079°59'1019.0
2019-Mar-20 21:30N 25°53' W 079°58'917.4
2019-Mar-20 21:00N 26°01' W 079°59'713.7
2019-Mar-20 20:30N 26°06' W 080°05'2 3.2
2019-Mar-20 20:00N 26°06' W 080°07'0 0.0
2019-Mar-20 19:30N 26°06' W 080°07'0 0.0
2019-Mar-20 19:00N 26°06' W 080°07'0 0.0
2019-Mar-20 18:30N 26°06' W 080°07'0 0.0
2019-Mar-20 18:00N 26°06' W 080°07'0 0.0
2019-Mar-20 17:30N 26°06' W 080°07'0 0.0
2019-Mar-20 16:57N 26°06' W 080°07'0 0.0
2019-Mar-20 16:27N 26°06' W 080°07'0 0.0
2019-Mar-20 16:00N 26°06' W 080°07'0 0.0
2019-Mar-20 15:30N 26°06' W 080°07'0 0.0
2019-Mar-20 15:00N 26°06' W 080°07'0 0.0
2019-Mar-20 14:30N 26°06' W 080°07'0 0.0
2019-Mar-20 14:00N 26°06' W 080°07'0 0.0
2019-Mar-20 13:30N 26°06' W 080°07'0 0.0
2019-Mar-20 13:00N 26°06' W 080°07'0 0.0
2019-Mar-20 12:27N 26°06' W 080°07'0 0.0
2019-Mar-20 12:00N 26°06' W 080°07'0 0.0
2019-Mar-20 11:27N 26°06' W 080°07'0 0.0
2019-Mar-20 11:00N 26°06' W 080°07'0 0.0
2019-Mar-20 10:30N 26°06' W 080°07'1 2.8
2019-Mar-20 10:00N 26°06' W 080°06'510.9
2019-Mar-20 09:30N 26°06' W 079°60'611.6
2019-Mar-20 09:00N 26°03' W 079°54'713.7
2019-Mar-20 08:30N 25°56' W 079°52'714.3
2019-Mar-20 08:01N 25°49' W 079°52'714.5
2019-Mar-20 07:31N 25°42' W 079°53'816.9
2019-Mar-20 07:00N 25°34' W 079°53'1019.2
2019-Mar-20 06:30N 25°24' W 079°54'918.9
2019-Mar-20 06:00N 25°15' W 079°56'5418.0
2019-Mar-20 03:00N 24°30' W 080°30'7318.2 060 / 201015.110.8 23.519.627.0
2019-Mar-19 23:00N 23°42' W 081°30'16122.9 040 / 201013.110.8 24.019.427.0
2019-Mar-19 16:00N 22°42' W 084°12'15112.6 050 / 211015.610.8 24.021.027.0
2019-Mar-19 04:00N 20°24' W 083°06'182 8.6 230 / 91015.210.8 26.021.528.0
2019-Mar-18 07:00N 18°12' W 080°54'6421.4 070 / 71013.810.8 26.521.328.0
2019-Mar-18 04:00N 17°12' W 080°30'8016.0 070 / 161015.210.8 25.521.828.0
2019-Mar-17 23:00N 15°54' W 080°12'11923.8 050 / 151012.910.8 26.523.027.0
2019-Mar-17 18:00N 14°00' W 080°48'4824.2 040 / 131014.110.8 26.521.328.0
2019-Mar-17 16:00N 13°12' W 080°54'219 5.9 050 / 141015.510.8 26.521.528.0
2019-Mar-16 03:00N 09°37' W 080°09'1019.9
2019-Mar-16 02:30N 09°35' W 079°59'918.6
2019-Mar-16 02:01N 09°27' W 079°54'611.0
2019-Mar-16 01:31N 09°22' W 079°54'0 0.1
2019-Mar-16 01:00N 09°22' W 079°54'0 0.0
2019-Mar-16 00:30N 09°22' W 079°54'0 0.0
2019-Mar-16 00:00N 09°22' W 079°54'0 0.0
2019-Mar-15 23:30N 09°22' W 079°54'0 0.0
2019-Mar-15 23:00N 09°22' W 079°54'1 1.4
2019-Mar-15 22:30N 09°22' W 079°54'2 4.3
2019-Mar-15 22:00N 09°25' W 079°54'4 7.4
2019-Mar-15 21:30N 09°21' W 079°55'4 7.9
2019-Mar-15 21:00N 09°17' W 079°55'0 0.5
2019-Mar-15 20:30N 09°17' W 079°55'0 0.6
2019-Mar-15 19:57N 09°16' W 079°55'0 0.4
2019-Mar-15 19:30N 09°16' W 079°55'1 0.5
2019-Mar-15 17:53N 09°15' W 079°55'0 0.0
2019-Mar-15 17:20N 09°15' W 079°55'0 0.0
2019-Mar-15 16:44N 09°15' W 079°55'0 0.0
2019-Mar-15 16:30N 09°15' W 079°55'0 0.3
2019-Mar-15 16:00N 09°15' W 079°55'1 2.0
2019-Mar-15 15:30N 09°16' W 079°55'0 0.4
2019-Mar-15 15:00N 09°16' W 079°55'0 0.4
2019-Mar-15 14:30N 09°17' W 079°55'0 0.5
2019-Mar-15 14:00N 09°17' W 079°55'0 0.4
2019-Mar-15 13:25N 09°17' W 079°55'1 1.9
2019-Mar-15 13:00N 09°18' W 079°55'2 3.1
2019-Mar-15 12:30N 09°19' W 079°55'2 4.8
2019-Mar-15 12:00N 09°22' W 079°55'3 6.1
2019-Mar-15 11:30N 09°25' W 079°55'4 8.7
2019-Mar-15 11:00N 09°29' W 079°54'612.1
2019-Mar-15 10:30N 09°35' W 079°52'20119.1
2019-Mar-15 00:00N 10°06' W 076°30'273 8.8 020 / 221008.810.8 26.523.727.0
2019-Mar-13 17:00N 14°36' W 075°48'   060 / 301011.710.8 27.021.028.0

Dump ship's entire track history